sensor_id;sensor_type;location;lat;lon;timestamp;temperature;humidity
23289;DHT22;11813;50.834;4.280;2023-04-03T00:00:12;5.10;99.90
23289;DHT22;11813;50.834;4.280;2023-04-03T00:02:38;5.10;99.90
23289;DHT22;11813;50.834;4.280;2023-04-03T00:05:06;5.00;99.90
23289;DHT22;11813;50.834;4.280;2023-04-03T00:07:31;5.00;99.90
23289;DHT22;11813;50.834;4.280;2023-04-03T00:09:57;5.10;99.90
23289;DHT22;11813;50.834;4.280;2023-04-03T00:12:23;5.20;99.90
23289;DHT22;11813;50.834;4.280;2023-04-03T00:14:48;5.20;99.90
23289;DHT22;11813;50.834;4.280;2023-04-03T00:17:14;5.20;99.90
23289;DHT22;11813;50.834;4.280;2023-04-03T00:19:39;5.30;99.90
23289;DHT22;11813;50.834;4.280;2023-04-03T00:22:05;5.20;99.90
23289;DHT22;11813;50.834;4.280;2023-04-03T00:24:31;5.10;99.90
23289;DHT22;11813;50.834;4.280;2023-04-03T00:26:56;5.10;99.90
23289;DHT22;11813;50.834;4.280;2023-04-03T00:29:22;5.10;99.90
23289;DHT22;11813;50.834;4.280;2023-04-03T00:31:47;5.10;99.90
23289;DHT22;11813;50.834;4.280;2023-04-03T00:34:13;5.20;99.90
23289;DHT22;11813;50.834;4.280;2023-04-03T00:36:38;5.10;99.90
23289;DHT22;11813;50.834;4.280;2023-04-03T00:39:04;5.10;99.90
23289;DHT22;11813;50.834;4.280;2023-04-03T00:41:31;5.10;99.90
23289;DHT22;11813;50.834;4.280;2023-04-03T00:43:57;5.10;99.90
23289;DHT22;11813;50.834;4.280;2023-04-03T00:46:23;5.20;99.90
23289;DHT22;11813;50.834;4.280;2023-04-03T00:48:49;5.10;99.90
23289;DHT22;11813;50.834;4.280;2023-04-03T00:51:18;5.10;99.90
23289;DHT22;11813;50.834;4.280;2023-04-03T00:53:52;5.20;99.90
23289;DHT22;11813;50.834;4.280;2023-04-03T00:56:21;5.20;99.90
23289;DHT22;11813;50.834;4.280;2023-04-03T00:58:53;5.10;99.90
23289;DHT22;11813;50.834;4.280;2023-04-03T01:01:24;5.10;99.90
23289;DHT22;11813;50.834;4.280;2023-04-03T01:03:50;5.00;99.90
23289;DHT22;11813;50.834;4.280;2023-04-03T01:06:17;5.10;99.90
23289;DHT22;11813;50.834;4.280;2023-04-03T01:08:48;5.00;99.90
23289;DHT22;11813;50.834;4.280;2023-04-03T01:11:14;5.10;99.90
23289;DHT22;11813;50.834;4.280;2023-04-03T01:13:39;5.20;99.90
23289;DHT22;11813;50.834;4.280;2023-04-03T01:16:06;5.20;99.90
23289;DHT22;11813;50.834;4.280;2023-04-03T01:18:34;5.20;99.90
23289;DHT22;11813;50.834;4.280;2023-04-03T01:21:10;5.20;99.90
23289;DHT22;11813;50.834;4.280;2023-04-03T01:24:31;5.10;99.90
23289;DHT22;11813;50.834;4.280;2023-04-03T01:26:53;5.00;99.90
23289;DHT22;11813;50.834;4.280;2023-04-03T01:29:19;4.90;99.90
23289;DHT22;11813;50.834;4.280;2023-04-03T01:31:48;5.00;99.90
23289;DHT22;11813;50.834;4.280;2023-04-03T01:34:14;5.00;99.90
23289;DHT22;11813;50.834;4.280;2023-04-03T01:36:40;5.00;99.90
23289;DHT22;11813;50.834;4.280;2023-04-03T01:39:06;4.90;99.90
23289;DHT22;11813;50.834;4.280;2023-04-03T01:41:32;5.00;99.90
23289;DHT22;11813;50.834;4.280;2023-04-03T01:43:58;5.00;99.90
23289;DHT22;11813;50.834;4.280;2023-04-03T01:46:23;5.00;99.90
23289;DHT22;11813;50.834;4.280;2023-04-03T01:48:50;5.00;99.90
23289;DHT22;11813;50.834;4.280;2023-04-03T01:51:16;5.00;99.90
23289;DHT22;11813;50.834;4.280;2023-04-03T01:53:42;5.10;99.90
23289;DHT22;11813;50.834;4.280;2023-04-03T01:56:07;4.90;99.90
23289;DHT22;11813;50.834;4.280;2023-04-03T01:58:33;4.70;99.90
23289;DHT22;11813;50.834;4.280;2023-04-03T02:00:59;4.80;99.90
23289;DHT22;11813;50.834;4.280;2023-04-03T02:03:25;4.80;99.90
23289;DHT22;11813;50.834;4.280;2023-04-03T02:05:50;4.70;99.90
23289;DHT22;11813;50.834;4.280;2023-04-03T02:08:16;4.60;99.90
23289;DHT22;11813;50.834;4.280;2023-04-03T02:10:44;4.70;99.90
23289;DHT22;11813;50.834;4.280;2023-04-03T02:13:11;4.80;99.90
23289;DHT22;11813;50.834;4.280;2023-04-03T02:15:40;4.80;99.90
23289;DHT22;11813;50.834;4.280;2023-04-03T02:18:06;4.80;99.90
23289;DHT22;11813;50.834;4.280;2023-04-03T02:20:32;4.90;99.90
23289;DHT22;11813;50.834;4.280;2023-04-03T02:22:58;4.90;99.90
23289;DHT22;11813;50.834;4.280;2023-04-03T02:25:24;4.90;99.90
23289;DHT22;11813;50.834;4.280;2023-04-03T02:27:50;4.90;99.90
23289;DHT22;11813;50.834;4.280;2023-04-03T02:30:15;4.80;99.90
23289;DHT22;11813;50.834;4.280;2023-04-03T02:32:42;4.80;99.90
23289;DHT22;11813;50.834;4.280;2023-04-03T02:35:09;4.60;99.90
23289;DHT22;11813;50.834;4.280;2023-04-03T02:37:35;4.60;99.90
23289;DHT22;11813;50.834;4.280;2023-04-03T02:40:01;4.50;99.90
23289;DHT22;11813;50.834;4.280;2023-04-03T02:42:26;4.60;99.90
23289;DHT22;11813;50.834;4.280;2023-04-03T02:44:52;4.70;99.90
23289;DHT22;11813;50.834;4.280;2023-04-03T02:47:17;4.70;99.90
23289;DHT22;11813;50.834;4.280;2023-04-03T02:49:43;4.70;99.90
23289;DHT22;11813;50.834;4.280;2023-04-03T02:52:12;4.60;99.90
23289;DHT22;11813;50.834;4.280;2023-04-03T02:54:38;4.40;99.90
23289;DHT22;11813;50.834;4.280;2023-04-03T02:57:03;4.30;99.90
23289;DHT22;11813;50.834;4.280;2023-04-03T02:59:29;4.40;99.90
23289;DHT22;11813;50.834;4.280;2023-04-03T03:01:54;4.50;99.90
23289;DHT22;11813;50.834;4.280;2023-04-03T03:04:21;4.50;99.90
23289;DHT22;11813;50.834;4.280;2023-04-03T03:06:46;4.50;99.90
23289;DHT22;11813;50.834;4.280;2023-04-03T03:09:12;4.50;99.90
23289;DHT22;11813;50.834;4.280;2023-04-03T03:11:39;4.50;99.90
23289;DHT22;11813;50.834;4.280;2023-04-03T03:14:05;4.50;99.90
23289;DHT22;11813;50.834;4.280;2023-04-03T03:16:30;4.50;99.90
23289;DHT22;11813;50.834;4.280;2023-04-03T03:18:56;4.50;99.90
23289;DHT22;11813;50.834;4.280;2023-04-03T03:21:21;4.60;99.90
23289;DHT22;11813;50.834;4.280;2023-04-03T03:23:47;4.60;99.90
23289;DHT22;11813;50.834;4.280;2023-04-03T03:26:13;4.60;99.90
23289;DHT22;11813;50.834;4.280;2023-04-03T03:28:39;4.60;99.90
23289;DHT22;11813;50.834;4.280;2023-04-03T03:31:06;4.50;99.90
23289;DHT22;11813;50.834;4.280;2023-04-03T03:33:32;4.50;99.90
23289;DHT22;11813;50.834;4.280;2023-04-03T03:35:59;4.50;99.90
23289;DHT22;11813;50.834;4.280;2023-04-03T03:38:25;4.60;99.90
23289;DHT22;11813;50.834;4.280;2023-04-03T03:40:51;4.60;99.90
23289;DHT22;11813;50.834;4.280;2023-04-03T03:43:17;4.60;99.90
23289;DHT22;11813;50.834;4.280;2023-04-03T03:45:44;4.60;99.90
23289;DHT22;11813;50.834;4.280;2023-04-03T03:48:09;4.60;99.90
23289;DHT22;11813;50.834;4.280;2023-04-03T03:50:35;4.60;99.90
23289;DHT22;11813;50.834;4.280;2023-04-03T03:53:01;4.50;99.90
23289;DHT22;11813;50.834;4.280;2023-04-03T03:55:26;4.50;99.90
23289;DHT22;11813;50.834;4.280;2023-04-03T03:57:52;4.50;99.90
23289;DHT22;11813;50.834;4.280;2023-04-03T04:00:18;4.40;99.90
23289;DHT22;11813;50.834;4.280;2023-04-03T04:02:44;4.50;99.90
23289;DHT22;11813;50.834;4.280;2023-04-03T04:05:10;4.50;99.90
23289;DHT22;11813;50.834;4.280;2023-04-03T04:07:35;4.50;99.90
23289;DHT22;11813;50.834;4.280;2023-04-03T04:10:01;4.30;99.90
23289;DHT22;11813;50.834;4.280;2023-04-03T04:12:26;4.30;99.90
23289;DHT22;11813;50.834;4.280;2023-04-03T04:14:52;4.20;99.90
23289;DHT22;11813;50.834;4.280;2023-04-03T04:17:18;4.20;99.90
23289;DHT22;11813;50.834;4.280;2023-04-03T04:19:43;4.10;99.90
23289;DHT22;11813;50.834;4.280;2023-04-03T04:22:09;4.10;99.90
23289;DHT22;11813;50.834;4.280;2023-04-03T04:24:34;4.10;99.90
23289;DHT22;11813;50.834;4.280;2023-04-03T04:27:00;4.20;99.90
23289;DHT22;11813;50.834;4.280;2023-04-03T04:29:25;4.10;99.90
23289;DHT22;11813;50.834;4.280;2023-04-03T04:31:51;4.10;99.90
23289;DHT22;11813;50.834;4.280;2023-04-03T04:34:17;4.00;99.90
23289;DHT22;11813;50.834;4.280;2023-04-03T04:36:42;3.90;99.90
23289;DHT22;11813;50.834;4.280;2023-04-03T04:39:08;3.90;99.90
23289;DHT22;11813;50.834;4.280;2023-04-03T04:41:33;3.90;99.90
23289;DHT22;11813;50.834;4.280;2023-04-03T04:43:59;3.90;99.90
23289;DHT22;11813;50.834;4.280;2023-04-03T04:46:25;4.00;99.90
23289;DHT22;11813;50.834;4.280;2023-04-03T04:48:51;4.10;99.90
23289;DHT22;11813;50.834;4.280;2023-04-03T04:51:17;4.00;99.90
23289;DHT22;11813;50.834;4.280;2023-04-03T04:53:43;4.00;99.90
23289;DHT22;11813;50.834;4.280;2023-04-03T04:56:09;4.00;99.90
23289;DHT22;11813;50.834;4.280;2023-04-03T04:58:36;4.00;99.90
23289;DHT22;11813;50.834;4.280;2023-04-03T05:01:03;4.10;99.90
23289;DHT22;11813;50.834;4.280;2023-04-03T05:03:29;4.10;99.90
23289;DHT22;11813;50.834;4.280;2023-04-03T05:05:55;4.10;99.90
23289;DHT22;11813;50.834;4.280;2023-04-03T05:08:21;4.10;99.90
23289;DHT22;11813;50.834;4.280;2023-04-03T05:10:47;4.20;99.90
23289;DHT22;11813;50.834;4.280;2023-04-03T05:13:13;4.20;99.90
23289;DHT22;11813;50.834;4.280;2023-04-03T05:15:39;4.10;99.90
23289;DHT22;11813;50.834;4.280;2023-04-03T05:18:04;3.90;99.90
23289;DHT22;11813;50.834;4.280;2023-04-03T05:20:31;3.90;99.90
23289;DHT22;11813;50.834;4.280;2023-04-03T05:22:56;3.90;99.90
23289;DHT22;11813;50.834;4.280;2023-04-03T05:25:22;3.80;99.90
23289;DHT22;11813;50.834;4.280;2023-04-03T05:27:48;3.90;99.90
23289;DHT22;11813;50.834;4.280;2023-04-03T05:30:14;3.80;99.90
23289;DHT22;11813;50.834;4.280;2023-04-03T05:32:39;3.90;99.90
23289;DHT22;11813;50.834;4.280;2023-04-03T05:35:06;3.90;99.90
23289;DHT22;11813;50.834;4.280;2023-04-03T05:37:33;4.00;99.90
23289;DHT22;11813;50.834;4.280;2023-04-03T05:39:58;3.90;99.90
23289;DHT22;11813;50.834;4.280;2023-04-03T05:42:24;3.90;99.90
23289;DHT22;11813;50.834;4.280;2023-04-03T05:44:49;3.80;99.90
23289;DHT22;11813;50.834;4.280;2023-04-03T05:47:16;3.80;99.90
23289;DHT22;11813;50.834;4.280;2023-04-03T05:49:41;3.80;99.90
23289;DHT22;11813;50.834;4.280;2023-04-03T05:52:20;4.00;99.90
23289;DHT22;11813;50.834;4.280;2023-04-03T05:54:46;4.10;99.90
23289;DHT22;11813;50.834;4.280;2023-04-03T05:57:14;4.10;99.90
23289;DHT22;11813;50.834;4.280;2023-04-03T05:59:42;4.10;99.90
23289;DHT22;11813;50.834;4.280;2023-04-03T06:02:11;4.00;99.90
23289;DHT22;11813;50.834;4.280;2023-04-03T06:04:37;3.90;99.90
23289;DHT22;11813;50.834;4.280;2023-04-03T06:07:03;4.00;99.90
23289;DHT22;11813;50.834;4.280;2023-04-03T06:09:29;4.00;99.90
23289;DHT22;11813;50.834;4.280;2023-04-03T06:11:55;4.10;99.90
23289;DHT22;11813;50.834;4.280;2023-04-03T06:14:21;4.20;99.90
23289;DHT22;11813;50.834;4.280;2023-04-03T06:16:47;4.20;99.90
23289;DHT22;11813;50.834;4.280;2023-04-03T06:19:12;4.30;99.90
23289;DHT22;11813;50.834;4.280;2023-04-03T06:21:38;4.30;99.90
23289;DHT22;11813;50.834;4.280;2023-04-03T06:24:05;4.30;99.90
23289;DHT22;11813;50.834;4.280;2023-04-03T06:26:31;4.40;99.90
23289;DHT22;11813;50.834;4.280;2023-04-03T06:28:57;4.40;99.90
23289;DHT22;11813;50.834;4.280;2023-04-03T06:31:23;4.40;99.90
23289;DHT22;11813;50.834;4.280;2023-04-03T06:33:48;4.40;99.90
23289;DHT22;11813;50.834;4.280;2023-04-03T06:36:17;4.50;99.90
23289;DHT22;11813;50.834;4.280;2023-04-03T06:38:45;4.60;99.90
23289;DHT22;11813;50.834;4.280;2023-04-03T06:41:11;4.50;99.90
23289;DHT22;11813;50.834;4.280;2023-04-03T06:43:36;4.40;99.90
23289;DHT22;11813;50.834;4.280;2023-04-03T06:46:02;4.50;99.90
23289;DHT22;11813;50.834;4.280;2023-04-03T06:48:28;4.50;99.90
23289;DHT22;11813;50.834;4.280;2023-04-03T06:50:54;4.70;99.90
23289;DHT22;11813;50.834;4.280;2023-04-03T06:53:20;4.70;99.90
23289;DHT22;11813;50.834;4.280;2023-04-03T06:55:45;4.80;99.90
23289;DHT22;11813;50.834;4.280;2023-04-03T06:58:12;4.80;99.90
23289;DHT22;11813;50.834;4.280;2023-04-03T07:00:39;4.90;99.90
23289;DHT22;11813;50.834;4.280;2023-04-03T07:03:04;4.90;99.90
23289;DHT22;11813;50.834;4.280;2023-04-03T07:05:30;5.10;99.90
23289;DHT22;11813;50.834;4.280;2023-04-03T07:07:56;5.20;99.90
23289;DHT22;11813;50.834;4.280;2023-04-03T07:10:22;5.30;99.90
23289;DHT22;11813;50.834;4.280;2023-04-03T07:12:48;5.30;99.90
23289;DHT22;11813;50.834;4.280;2023-04-03T07:15:14;5.10;99.90
23289;DHT22;11813;50.834;4.280;2023-04-03T07:17:40;5.20;99.90
23289;DHT22;11813;50.834;4.280;2023-04-03T07:20:06;5.20;99.90
23289;DHT22;11813;50.834;4.280;2023-04-03T07:22:32;5.40;99.90
23289;DHT22;11813;50.834;4.280;2023-04-03T07:24:58;5.50;99.90
23289;DHT22;11813;50.834;4.280;2023-04-03T07:27:24;5.80;99.90
23289;DHT22;11813;50.834;4.280;2023-04-03T07:29:50;6.00;99.90
23289;DHT22;11813;50.834;4.280;2023-04-03T07:32:16;5.90;99.90
23289;DHT22;11813;50.834;4.280;2023-04-03T07:34:41;5.90;99.90
23289;DHT22;11813;50.834;4.280;2023-04-03T07:37:07;6.00;99.90
23289;DHT22;11813;50.834;4.280;2023-04-03T07:39:34;6.20;99.90
23289;DHT22;11813;50.834;4.280;2023-04-03T07:42:00;6.30;99.90
23289;DHT22;11813;50.834;4.280;2023-04-03T07:44:25;6.40;99.90
23289;DHT22;11813;50.834;4.280;2023-04-03T07:46:51;6.40;99.90
23289;DHT22;11813;50.834;4.280;2023-04-03T07:49:17;6.60;99.90
23289;DHT22;11813;50.834;4.280;2023-04-03T07:51:48;6.70;99.90
23289;DHT22;11813;50.834;4.280;2023-04-03T07:54:14;6.80;99.90
23289;DHT22;11813;50.834;4.280;2023-04-03T07:56:40;6.90;99.90
23289;DHT22;11813;50.834;4.280;2023-04-03T07:59:08;7.00;99.90
23289;DHT22;11813;50.834;4.280;2023-04-03T08:01:34;6.90;99.90
23289;DHT22;11813;50.834;4.280;2023-04-03T08:04:00;6.80;99.90
23289;DHT22;11813;50.834;4.280;2023-04-03T08:06:26;6.80;99.90
23289;DHT22;11813;50.834;4.280;2023-04-03T08:08:51;6.90;99.90
23289;DHT22;11813;50.834;4.280;2023-04-03T08:11:17;7.00;99.90
23289;DHT22;11813;50.834;4.280;2023-04-03T08:13:44;7.10;99.90
23289;DHT22;11813;50.834;4.280;2023-04-03T08:16:16;7.20;99.90
23289;DHT22;11813;50.834;4.280;2023-04-03T08:18:42;7.40;99.90
23289;DHT22;11813;50.834;4.280;2023-04-03T08:21:09;7.50;99.90
23289;DHT22;11813;50.834;4.280;2023-04-03T08:23:36;7.60;99.90
23289;DHT22;11813;50.834;4.280;2023-04-03T08:26:16;7.70;99.90
23289;DHT22;11813;50.834;4.280;2023-04-03T08:28:42;7.90;99.90
23289;DHT22;11813;50.834;4.280;2023-04-03T08:31:14;7.90;99.90
23289;DHT22;11813;50.834;4.280;2023-04-03T08:33:40;8.10;99.90
23289;DHT22;11813;50.834;4.280;2023-04-03T08:36:15;8.30;99.90
23289;DHT22;11813;50.834;4.280;2023-04-03T08:38:41;8.20;99.90
23289;DHT22;11813;50.834;4.280;2023-04-03T08:49:44;8.60;99.90
23289;DHT22;11813;50.834;4.280;2023-04-03T08:52:57;8.90;99.90
23289;DHT22;11813;50.834;4.280;2023-04-03T09:00:32;9.00;99.90
23289;DHT22;11813;50.834;4.280;2023-04-03T09:02:59;9.10;99.90
23289;DHT22;11813;50.834;4.280;2023-04-03T09:05:49;9.00;99.90
23289;DHT22;11813;50.834;4.280;2023-04-03T09:08:21;9.00;99.90
23289;DHT22;11813;50.834;4.280;2023-04-03T09:10:49;9.20;99.90
23289;DHT22;11813;50.834;4.280;2023-04-03T09:13:40;9.40;99.90
23289;DHT22;11813;50.834;4.280;2023-04-03T09:22:20;10.10;99.90
23289;DHT22;11813;50.834;4.280;2023-04-03T09:25:34;10.30;99.90
23289;DHT22;11813;50.834;4.280;2023-04-03T09:27:34;10.10;99.90
23289;DHT22;11813;50.834;4.280;2023-04-03T09:30:01;9.90;99.90
23289;DHT22;11813;50.834;4.280;2023-04-03T09:32:33;10.00;99.90
23289;DHT22;11813;50.834;4.280;2023-04-03T09:35:13;10.10;99.90
23289;DHT22;11813;50.834;4.280;2023-04-03T09:37:43;10.30;99.90
23289;DHT22;11813;50.834;4.280;2023-04-03T09:40:47;10.40;99.90
23289;DHT22;11813;50.834;4.280;2023-04-03T09:43:24;10.50;99.90
23289;DHT22;11813;50.834;4.280;2023-04-03T09:45:51;10.60;99.90
23289;DHT22;11813;50.834;4.280;2023-04-03T09:48:20;10.80;99.90
23289;DHT22;11813;50.834;4.280;2023-04-03T09:50:59;11.00;99.90
23289;DHT22;11813;50.834;4.280;2023-04-03T09:55:58;10.50;99.90
23289;DHT22;11813;50.834;4.280;2023-04-03T09:58:30;10.40;99.90
23289;DHT22;11813;50.834;4.280;2023-04-03T10:00:58;10.60;99.90
23289;DHT22;11813;50.834;4.280;2023-04-03T10:05:54;10.80;99.90
23289;DHT22;11813;50.834;4.280;2023-04-03T10:08:25;11.10;99.90
23289;DHT22;11813;50.834;4.280;2023-04-03T10:11:17;11.50;99.90
23289;DHT22;11813;50.834;4.280;2023-04-03T10:13:57;11.40;99.90
23289;DHT22;11813;50.834;4.280;2023-04-03T10:16:27;11.30;99.90
23289;DHT22;11813;50.834;4.280;2023-04-03T10:19:05;11.30;99.90
23289;DHT22;11813;50.834;4.280;2023-04-03T10:21:47;11.30;99.90
23289;DHT22;11813;50.834;4.280;2023-04-03T10:27:10;11.40;99.90
23289;DHT22;11813;50.834;4.280;2023-04-03T10:36:02;11.70;99.90
23289;DHT22;11813;50.834;4.280;2023-04-03T10:52:43;13.00;99.90
23289;DHT22;11813;50.834;4.280;2023-04-03T10:58:00;13.20;99.90
23289;DHT22;11813;50.834;4.280;2023-04-03T11:00:39;13.30;99.90
23289;DHT22;11813;50.834;4.280;2023-04-03T11:03:59;13.50;99.90
23289;DHT22;11813;50.834;4.280;2023-04-03T11:06:02;13.60;99.90
23289;DHT22;11813;50.834;4.280;2023-04-03T11:11:32;13.70;99.90
23289;DHT22;11813;50.834;4.280;2023-04-03T11:16:37;14.20;99.90
23289;DHT22;11813;50.834;4.280;2023-04-03T11:19:20;14.10;99.90
23289;DHT22;11813;50.834;4.280;2023-04-03T11:21:57;14.20;99.90
23289;DHT22;11813;50.834;4.280;2023-04-03T11:24:29;14.50;99.90
23289;DHT22;11813;50.834;4.280;2023-04-03T11:26:58;14.30;99.90
23289;DHT22;11813;50.834;4.280;2023-04-03T11:29:32;13.60;99.90
23289;DHT22;11813;50.834;4.280;2023-04-03T11:37:41;14.00;99.90
23289;DHT22;11813;50.834;4.280;2023-04-03T11:47:49;14.40;99.90
23289;DHT22;11813;50.834;4.280;2023-04-03T11:53:01;14.40;99.90
23289;DHT22;11813;50.834;4.280;2023-04-03T12:19:03;15.10;99.90
23289;DHT22;11813;50.834;4.280;2023-04-03T12:35:27;15.70;99.90
23289;DHT22;11813;50.834;4.280;2023-04-03T12:45:50;16.90;99.90
23289;DHT22;11813;50.834;4.280;2023-04-03T12:48:21;17.00;99.90
23289;DHT22;11813;50.834;4.280;2023-04-03T12:50:49;16.40;99.90
23289;DHT22;11813;50.834;4.280;2023-04-03T12:53:41;16.10;99.90
23289;DHT22;11813;50.834;4.280;2023-04-03T12:56:29;16.20;99.90
23289;DHT22;11813;50.834;4.280;2023-04-03T12:59:12;16.40;99.90
23289;DHT22;11813;50.834;4.280;2023-04-03T13:01:39;16.40;99.90
23289;DHT22;11813;50.834;4.280;2023-04-03T13:04:05;16.90;99.90
23289;DHT22;11813;50.834;4.280;2023-04-03T13:06:38;17.40;99.90
23289;DHT22;11813;50.834;4.280;2023-04-03T13:09:04;17.40;99.90
23289;DHT22;11813;50.834;4.280;2023-04-03T13:11:35;17.70;99.90
23289;DHT22;11813;50.834;4.280;2023-04-03T13:14:04;18.00;99.90
23289;DHT22;11813;50.834;4.280;2023-04-03T13:16:32;18.20;99.90
23289;DHT22;11813;50.834;4.280;2023-04-03T13:18:58;18.50;99.90
23289;DHT22;11813;50.834;4.280;2023-04-03T13:21:27;18.20;99.90
23289;DHT22;11813;50.834;4.280;2023-04-03T13:23:57;18.40;99.90
23289;DHT22;11813;50.834;4.280;2023-04-03T13:26:25;18.30;99.90
23289;DHT22;11813;50.834;4.280;2023-04-03T13:29:00;18.50;99.90
23289;DHT22;11813;50.834;4.280;2023-04-03T13:31:34;18.50;99.90
23289;DHT22;11813;50.834;4.280;2023-04-03T13:34:06;18.60;99.90
23289;DHT22;11813;50.834;4.280;2023-04-03T13:36:36;18.60;99.90
23289;DHT22;11813;50.834;4.280;2023-04-03T13:39:22;18.50;99.20
23289;DHT22;11813;50.834;4.280;2023-04-03T13:41:51;18.60;97.40
23289;DHT22;11813;50.834;4.280;2023-04-03T13:46:50;17.70;98.70
23289;DHT22;11813;50.834;4.280;2023-04-03T13:49:36;18.00;99.90
23289;DHT22;11813;50.834;4.280;2023-04-03T13:54:52;18.20;97.50
23289;DHT22;11813;50.834;4.280;2023-04-03T13:57:18;18.00;98.50
23289;DHT22;11813;50.834;4.280;2023-04-03T13:59:44;18.20;98.70
23289;DHT22;11813;50.834;4.280;2023-04-03T14:02:33;18.30;97.10
23289;DHT22;11813;50.834;4.280;2023-04-03T14:05:00;18.40;98.10
23289;DHT22;11813;50.834;4.280;2023-04-03T14:07:28;18.90;98.10
23289;DHT22;11813;50.834;4.280;2023-04-03T14:09:55;18.70;95.80
23289;DHT22;11813;50.834;4.280;2023-04-03T14:12:31;18.50;97.10
23289;DHT22;11813;50.834;4.280;2023-04-03T14:14:58;18.50;95.90
23289;DHT22;11813;50.834;4.280;2023-04-03T14:17:25;18.50;98.90
23289;DHT22;11813;50.834;4.280;2023-04-03T14:19:52;18.60;97.10
23289;DHT22;11813;50.834;4.280;2023-04-03T14:22:25;18.60;96.80
23289;DHT22;11813;50.834;4.280;2023-04-03T14:24:52;18.90;97.80
23289;DHT22;11813;50.834;4.280;2023-04-03T14:27:26;19.00;96.10
23289;DHT22;11813;50.834;4.280;2023-04-03T14:29:53;19.00;98.60
23289;DHT22;11813;50.834;4.280;2023-04-03T14:32:20;18.70;96.50
23289;DHT22;11813;50.834;4.280;2023-04-03T14:34:47;19.00;99.10
23289;DHT22;11813;50.834;4.280;2023-04-03T14:37:16;19.20;99.70
23289;DHT22;11813;50.834;4.280;2023-04-03T14:39:43;19.10;97.40
23289;DHT22;11813;50.834;4.280;2023-04-03T14:42:15;18.80;96.30
23289;DHT22;11813;50.834;4.280;2023-04-03T14:44:41;18.80;94.50
23289;DHT22;11813;50.834;4.280;2023-04-03T14:47:16;18.30;93.80
23289;DHT22;11813;50.834;4.280;2023-04-03T14:49:42;18.30;98.20
23289;DHT22;11813;50.834;4.280;2023-04-03T14:52:23;18.40;96.30
23289;DHT22;11813;50.834;4.280;2023-04-03T14:54:50;18.30;98.80
23289;DHT22;11813;50.834;4.280;2023-04-03T14:57:16;18.40;94.90
23289;DHT22;11813;50.834;4.280;2023-04-03T14:59:43;18.30;95.70
23289;DHT22;11813;50.834;4.280;2023-04-03T15:02:29;18.40;94.80
23289;DHT22;11813;50.834;4.280;2023-04-03T15:04:57;18.50;94.90
23289;DHT22;11813;50.834;4.280;2023-04-03T15:07:24;18.60;94.70
23289;DHT22;11813;50.834;4.280;2023-04-03T15:09:50;18.60;95.10
23289;DHT22;11813;50.834;4.280;2023-04-03T15:12:16;18.70;94.70
23289;DHT22;11813;50.834;4.280;2023-04-03T15:14:42;18.30;96.90
23289;DHT22;11813;50.834;4.280;2023-04-03T15:17:15;18.40;97.00
23289;DHT22;11813;50.834;4.280;2023-04-03T15:19:41;18.70;94.80
23289;DHT22;11813;50.834;4.280;2023-04-03T15:22:08;18.80;95.00
23289;DHT22;11813;50.834;4.280;2023-04-03T15:24:35;19.10;97.40
23289;DHT22;11813;50.834;4.280;2023-04-03T15:27:00;19.40;94.60
23289;DHT22;11813;50.834;4.280;2023-04-03T15:29:27;19.70;93.70
23289;DHT22;11813;50.834;4.280;2023-04-03T15:31:52;19.80;94.00
23289;DHT22;11813;50.834;4.280;2023-04-03T15:34:19;19.60;93.10
23289;DHT22;11813;50.834;4.280;2023-04-03T15:36:46;19.20;94.00
23289;DHT22;11813;50.834;4.280;2023-04-03T15:39:12;19.30;94.90
23289;DHT22;11813;50.834;4.280;2023-04-03T15:41:38;19.00;93.10
23289;DHT22;11813;50.834;4.280;2023-04-03T15:44:03;19.00;93.10
23289;DHT22;11813;50.834;4.280;2023-04-03T15:46:29;19.20;92.30
23289;DHT22;11813;50.834;4.280;2023-04-03T15:48:55;19.20;91.40
23289;DHT22;11813;50.834;4.280;2023-04-03T15:51:20;19.10;92.20
23289;DHT22;11813;50.834;4.280;2023-04-03T15:53:46;19.30;92.90
23289;DHT22;11813;50.834;4.280;2023-04-03T15:56:12;19.30;92.60
23289;DHT22;11813;50.834;4.280;2023-04-03T15:58:37;19.40;93.30
23289;DHT22;11813;50.834;4.280;2023-04-03T16:01:03;18.90;92.30
23289;DHT22;11813;50.834;4.280;2023-04-03T16:03:29;19.00;92.70
23289;DHT22;11813;50.834;4.280;2023-04-03T16:05:55;18.80;93.70
23289;DHT22;11813;50.834;4.280;2023-04-03T16:08:20;19.00;92.70
23289;DHT22;11813;50.834;4.280;2023-04-03T16:10:46;19.30;91.70
23289;DHT22;11813;50.834;4.280;2023-04-03T16:13:13;19.50;93.30
23289;DHT22;11813;50.834;4.280;2023-04-03T16:15:39;19.80;91.90
23289;DHT22;11813;50.834;4.280;2023-04-03T16:18:05;20.30;93.30
23289;DHT22;11813;50.834;4.280;2023-04-03T16:20:31;20.40;91.40
23289;DHT22;11813;50.834;4.280;2023-04-03T16:22:58;20.50;90.20
23289;DHT22;11813;50.834;4.280;2023-04-03T16:25:25;20.60;90.20
23289;DHT22;11813;50.834;4.280;2023-04-03T16:27:50;20.80;90.40
23289;DHT22;11813;50.834;4.280;2023-04-03T16:30:16;21.30;91.20
23289;DHT22;11813;50.834;4.280;2023-04-03T16:32:42;21.10;89.40
23289;DHT22;11813;50.834;4.280;2023-04-03T16:35:09;21.40;91.60
23289;DHT22;11813;50.834;4.280;2023-04-03T16:37:36;21.60;88.40
23289;DHT22;11813;50.834;4.280;2023-04-03T16:40:03;22.10;91.40
23289;DHT22;11813;50.834;4.280;2023-04-03T16:42:30;22.50;89.50
23289;DHT22;11813;50.834;4.280;2023-04-03T16:44:56;23.30;89.60
23289;DHT22;11813;50.834;4.280;2023-04-03T16:47:21;24.00;87.60
23289;DHT22;11813;50.834;4.280;2023-04-03T16:49:47;24.20;83.40
23289;DHT22;11813;50.834;4.280;2023-04-03T16:52:13;24.10;84.30
23289;DHT22;11813;50.834;4.280;2023-04-03T16:54:39;24.10;82.60
23289;DHT22;11813;50.834;4.280;2023-04-03T16:57:04;23.00;85.20
23289;DHT22;11813;50.834;4.280;2023-04-03T16:59:30;21.70;89.20
23289;DHT22;11813;50.834;4.280;2023-04-03T17:01:56;20.60;87.60
23289;DHT22;11813;50.834;4.280;2023-04-03T17:04:21;19.30;89.60
23289;DHT22;11813;50.834;4.280;2023-04-03T17:06:47;18.30;90.90
23289;DHT22;11813;50.834;4.280;2023-04-03T17:09:13;17.30;94.00
23289;DHT22;11813;50.834;4.280;2023-04-03T17:11:38;16.90;93.50
23289;DHT22;11813;50.834;4.280;2023-04-03T17:14:04;16.10;93.90
23289;DHT22;11813;50.834;4.280;2023-04-03T17:16:30;15.60;94.70
23289;DHT22;11813;50.834;4.280;2023-04-03T17:18:58;15.30;94.50
23289;DHT22;11813;50.834;4.280;2023-04-03T17:21:23;14.70;96.80
23289;DHT22;11813;50.834;4.280;2023-04-03T17:23:54;14.40;94.60
23289;DHT22;11813;50.834;4.280;2023-04-03T17:26:23;14.30;96.10
23289;DHT22;11813;50.834;4.280;2023-04-03T17:28:48;13.90;95.40
23289;DHT22;11813;50.834;4.280;2023-04-03T17:31:14;13.90;96.40
23289;DHT22;11813;50.834;4.280;2023-04-03T17:33:40;13.70;96.50
23289;DHT22;11813;50.834;4.280;2023-04-03T17:36:06;13.20;97.30
23289;DHT22;11813;50.834;4.280;2023-04-03T17:38:32;13.00;98.80
23289;DHT22;11813;50.834;4.280;2023-04-03T17:40:59;12.90;97.70
23289;DHT22;11813;50.834;4.280;2023-04-03T17:43:26;12.70;98.50
23289;DHT22;11813;50.834;4.280;2023-04-03T17:45:52;12.70;98.40
23289;DHT22;11813;50.834;4.280;2023-04-03T17:48:18;12.50;98.30